Time;durP1;ratioP1;P1;durP2;ratioP2;P2;SDS_P1;SDS_P2;PMS_P1;PMS_P2;Temp;Humidity;BMP_temperature;BMP_pressure;BME280_temperature;BME280_humidity;BME280_pressure;Samples;Min_cycle;Max_cycle;Signal;HPM_P1;HPM_P2
2023/02/24 00:01:48;;;;;;;16.23;8.40;;;16.50;62.00;;;;;;6350356;22;20438;-84
2023/02/24 00:04:18;;;;;;;12.77;7.60;;;16.50;62.00;;;;;;6351155;22;20431;-84
2023/02/24 00:06:48;;;;;;;19.47;7.40;;;16.50;62.10;;;;;;6351570;22;20407;-85
2023/02/24 00:09:18;;;;;;;13.20;7.63;;;16.50;62.00;;;;;;6349661;22;20475;-83
2023/02/24 00:11:47;;;;;;;17.00;8.60;;;16.60;62.10;;;;;;6347651;22;20450;-84
2023/02/24 00:14:17;;;;;;;14.30;7.43;;;16.50;61.90;;;;;;6349517;22;20446;-84
2023/02/24 00:16:46;;;;;;;15.07;7.80;;;16.50;62.10;;;;;;6349015;22;20446;-84
2023/02/24 00:19:15;;;;;;;20.77;7.13;;;16.50;62.00;;;;;;6347049;22;20507;-85
2023/02/24 00:21:45;;;;;;;14.40;6.93;;;16.50;62.00;;;;;;6349386;22;20380;-84
2023/02/24 00:24:13;;;;;;;16.97;7.17;;;16.50;62.10;;;;;;6347954;22;20420;-84
2023/02/24 00:26:41;;;;;;;17.23;7.63;;;16.50;62.10;;;;;;6347601;22;20522;-84
2023/02/24 00:29:10;;;;;;;18.53;6.80;;;16.50;62.20;;;;;;6348893;22;20421;-84
2023/02/24 00:31:40;;;;;;;14.03;6.63;;;16.50;62.20;;;;;;6347068;22;20399;-84
2023/02/24 00:34:11;;;;;;;11.87;6.90;;;16.50;62.20;;;;;;6348550;22;20435;-84
2023/02/24 00:36:40;;;;;;;13.93;6.67;;;16.50;62.20;;;;;;6348255;22;20396;-84
2023/02/24 00:39:11;;;;;;;15.63;7.20;;;16.50;62.10;;;;;;6348896;22;20414;-84
2023/02/24 00:41:40;;;;;;;12.40;6.53;;;16.50;62.10;;;;;;6346243;22;20434;-83
2023/02/24 00:44:09;;;;;;;10.40;6.07;;;16.50;62.10;;;;;;6347160;22;20420;-83
2023/02/24 00:46:39;;;;;;;11.80;6.10;;;16.50;62.30;;;;;;6348174;22;20403;-84
2023/02/24 00:49:11;;;;;;;12.40;6.90;;;16.50;62.10;;;;;;6351500;22;20400;-83
2023/02/24 00:51:40;;;;;;;19.23;6.03;;;16.50;62.20;;;;;;6340772;22;20459;-83
2023/02/24 00:54:13;;;;;;;14.80;6.33;;;16.50;62.00;;;;;;6339869;22;20845;-84
2023/02/24 00:56:41;;;;;;;13.60;5.53;;;16.40;61.90;;;;;;6339652;22;20428;-83
2023/02/24 00:59:10;;;;;;;8.87;5.90;;;16.40;62.10;;;;;;6339684;22;20403;-84
2023/02/24 01:01:38;;;;;;;11.03;5.73;;;16.50;62.30;;;;;;6340544;22;20403;-83
2023/02/24 01:04:10;;;;;;;14.43;5.80;;;16.50;62.10;;;;;;6340504;22;20420;-84
2023/02/24 01:06:42;;;;;;;9.80;5.83;;;16.40;62.00;;;;;;6340820;22;20406;-84
2023/02/24 01:09:12;;;;;;;9.63;5.03;;;16.40;62.10;;;;;;6340788;22;20403;-84
2023/02/24 01:14:45;;;;;;;8.73;5.67;;;16.40;61.90;;;;;;6340732;22;20415;-84
2023/02/24 01:17:13;;;;;;;13.23;5.63;;;16.30;62.00;;;;;;6344483;22;20399;-84
2023/02/24 01:19:41;;;;;;;8.87;5.13;;;16.40;62.10;;;;;;6346348;22;20430;-85
2023/02/24 01:22:09;;;;;;;11.53;4.87;;;16.30;61.90;;;;;;6350678;22;20403;-85
2023/02/24 01:24:39;;;;;;;9.50;4.97;;;16.30;62.10;;;;;;6352489;22;20487;-84
2023/02/24 01:27:08;;;;;;;10.90;5.03;;;16.30;62.00;;;;;;6352392;22;20438;-84
2023/02/24 01:29:38;;;;;;;7.80;4.70;;;16.30;61.90;;;;;;6354188;22;20400;-84
2023/02/24 01:32:06;;;;;;;10.03;4.97;;;16.30;61.90;;;;;;6353642;22;20400;-86
2023/02/24 01:34:35;;;;;;;14.03;4.77;;;16.30;62.60;;;;;;6353791;22;20431;-85
2023/02/24 01:37:03;;;;;;;8.03;4.63;;;16.30;61.80;;;;;;6354270;22;20472;-85
2023/02/24 01:39:31;;;;;;;10.93;4.20;;;16.30;61.70;;;;;;6353862;22;20404;-84
2023/02/24 01:42:01;;;;;;;10.73;5.30;;;16.30;61.50;;;;;;6350184;22;20434;-85
2023/02/24 01:45:11;;;;;;;10.70;4.60;;;16.30;61.50;;;;;;6350549;22;20514;-84
2023/02/24 01:47:42;;;;;;;7.83;4.40;;;16.20;61.30;;;;;;6350586;22;20396;-85
2023/02/24 01:50:16;;;;;;;7.40;4.00;;;16.20;61.50;;;;;;6349758;22;20396;-84
2023/02/24 01:52:45;;;;;;;6.10;4.07;;;16.20;61.40;;;;;;6350289;22;20404;-85
2023/02/24 01:55:18;;;;;;;6.97;4.00;;;16.20;61.30;;;;;;6349953;22;20407;-85
2023/02/24 01:57:48;;;;;;;8.50;4.33;;;16.20;61.40;;;;;;6349591;22;20434;-85
2023/02/24 02:00:31;;;;;;;10.23;3.90;;;16.20;61.30;;;;;;6352973;22;20406;-86
2023/02/24 02:03:03;;;;;;;8.93;4.27;;;16.10;61.20;;;;;;6351216;22;20420;-85
2023/02/24 02:05:33;;;;;;;8.03;4.37;;;16.10;61.00;;;;;;6351123;22;20396;-85
2023/02/24 02:08:01;;;;;;;5.50;3.60;;;16.10;61.20;;;;;;6352131;22;20418;-85
2023/02/24 02:10:30;;;;;;;8.07;4.20;;;16.10;61.00;;;;;;6352186;22;20498;-85
2023/02/24 02:13:03;;;;;;;6.70;4.00;;;16.10;60.90;;;;;;6353523;22;20423;-86
2023/02/24 02:15:31;;;;;;;5.77;3.70;;;16.10;61.00;;;;;;6353124;22;20407;-85
2023/02/24 02:18:02;;;;;;;6.83;3.87;;;16.00;60.80;;;;;;6352791;22;20423;-85
2023/02/24 02:21:03;;;;;;;6.03;3.80;;;16.00;60.80;;;;;;6353795;22;20458;-85
2023/02/24 02:23:49;;;;;;;4.93;3.80;;;16.00;60.70;;;;;;6317197;22;20495;-85
2023/02/24 02:26:46;;;;;;;5.30;3.90;;;16.10;60.70;;;;;;6352175;22;20427;-85
2023/02/24 02:29:48;;;;;;;5.67;3.60;;;16.10;60.70;;;;;;6353044;22;20458;-84
2023/02/24 02:32:37;;;;;;;5.30;3.40;;;16.10;60.70;;;;;;6286028;22;20408;-85
2023/02/24 02:35:08;;;;;;;5.90;3.20;;;16.00;60.50;;;;;;6347414;22;20435;-85
2023/02/24 02:37:38;;;;;;;6.60;3.47;;;16.00;60.80;;;;;;6350684;22;20411;-85
2023/02/24 02:40:17;;;;;;;5.97;3.30;;;16.00;60.70;;;;;;6351391;22;20407;-86
2023/02/24 02:42:46;;;;;;;5.50;3.63;;;16.00;60.40;;;;;;6350204;22;20435;-85
2023/02/24 02:45:17;;;;;;;7.33;4.13;;;15.90;60.50;;;;;;6351220;22;20426;-85
2023/02/24 02:47:49;;;;;;;5.83;3.97;;;15.90;61.20;;;;;;6349890;22;20409;-85
2023/02/24 02:50:20;;;;;;;5.33;3.70;;;15.90;60.50;;;;;;6350156;22;20495;-85
2023/02/24 02:52:52;;;;;;;5.40;3.27;;;15.90;60.40;;;;;;6350891;22;20399;-82
2023/02/24 02:55:24;;;;;;;6.43;3.70;;;15.90;60.40;;;;;;6351235;22;20466;-82
2023/02/24 02:57:53;;;;;;;4.60;3.10;;;15.90;60.40;;;;;;6351936;22;20438;-83
2023/02/24 03:00:23;;;;;;;4.97;3.63;;;15.90;60.30;;;;;;6350470;22;20398;-82
2023/02/24 03:02:54;;;;;;;5.93;3.60;;;15.90;60.20;;;;;;6351149;22;20488;-83
2023/02/24 03:05:28;;;;;;;4.87;3.07;;;15.90;60.10;;;;;;6352548;22;20465;-83
2023/02/24 03:07:58;;;;;;;5.50;3.17;;;15.80;59.80;;;;;;6352579;22;20395;-84
2023/02/24 03:10:28;;;;;;;4.77;2.63;;;15.80;60.10;;;;;;6350887;22;20487;-83
2023/02/24 03:12:57;;;;;;;8.80;3.30;;;15.80;60.10;;;;;;6350962;22;20423;-83
2023/02/24 03:15:26;;;;;;;7.03;2.73;;;15.80;60.00;;;;;;6350681;22;20434;-84
2023/02/24 03:17:56;;;;;;;7.87;3.13;;;15.80;60.00;;;;;;6352093;22;20410;-83
2023/02/24 03:20:28;;;;;;;5.07;2.93;;;15.80;60.10;;;;;;6350666;22;20427;-83
2023/02/24 03:23:02;;;;;;;4.30;2.80;;;15.80;60.00;;;;;;6351013;22;20424;-83
2023/02/24 03:25:37;;;;;;;3.80;2.90;;;15.80;60.00;;;;;;6350142;22;20470;-84
2023/02/24 03:28:09;;;;;;;6.20;3.60;;;15.80;59.90;;;;;;6352224;22;20441;-84
2023/02/24 03:30:40;;;;;;;6.87;3.40;;;15.80;59.80;;;;;;6352409;22;20463;-83
2023/02/24 03:33:10;;;;;;;6.20;2.77;;;15.70;60.10;;;;;;6352465;22;20456;-85
2023/02/24 03:35:40;;;;;;;4.83;3.27;;;15.70;60.00;;;;;;6352096;22;20423;-84
2023/02/24 03:38:09;;;;;;;4.87;2.97;;;15.70;59.90;;;;;;6351930;22;20474;-84
2023/02/24 03:40:37;;;;;;;4.70;2.83;;;15.70;59.90;;;;;;6351710;22;20502;-84
2023/02/24 03:43:07;;;;;;;4.40;2.77;;;15.70;59.90;;;;;;6351793;22;20526;-85
2023/02/24 03:45:36;;;;;;;10.10;2.57;;;15.70;59.90;;;;;;6351666;22;20451;-84
2023/02/24 03:48:06;;;;;;;5.07;2.50;;;15.70;59.90;;;;;;6351438;22;20467;-84
2023/02/24 03:50:34;;;;;;;5.10;2.43;;;15.70;59.90;;;;;;6352115;22;20423;-84
2023/02/24 03:53:11;;;;;;;5.07;2.70;;;15.70;59.90;;;;;;6351758;22;20510;-84
2023/02/24 03:55:44;;;;;;;3.90;2.60;;;15.70;59.80;;;;;;6358596;22;20419;-83
2023/02/24 03:58:17;;;;;;;3.83;2.33;;;15.70;59.80;;;;;;6337223;22;20399;-83
2023/02/24 04:00:48;;;;;;;4.00;2.43;;;15.70;59.70;;;;;;6338697;22;20427;-84
2023/02/24 04:03:24;;;;;;;3.67;1.97;;;15.70;60.00;;;;;;6339965;22;20491;-83
2023/02/24 04:05:57;;;;;;;3.80;2.57;;;15.70;59.80;;;;;;6340696;22;20435;-83
2023/02/24 04:08:29;;;;;;;2.70;2.50;;;15.70;59.90;;;;;;6341983;22;20427;-84
2023/02/24 04:11:04;;;;;;;5.40;2.70;;;15.60;59.80;;;;;;6341943;22;20505;-84
2023/02/24 04:13:35;;;;;;;3.13;2.13;;;15.70;59.80;;;;;;6344159;22;20533;-84
2023/02/24 04:16:07;;;;;;;6.67;2.43;;;15.60;59.90;;;;;;6343947;22;20433;-84
2023/02/24 04:18:35;;;;;;;4.53;2.30;;;15.60;59.80;;;;;;6345212;22;20490;-83
2023/02/24 04:21:04;;;;;;;5.90;2.37;;;15.60;59.80;;;;;;6349666;22;20467;-83
2023/02/24 04:23:37;;;;;;;3.27;2.20;;;15.60;59.80;;;;;;6351400;22;20520;-84
2023/02/24 04:26:05;;;;;;;3.73;2.30;;;15.60;59.90;;;;;;6350684;22;20431;-84
2023/02/24 04:28:33;;;;;;;4.40;1.80;;;15.60;59.80;;;;;;6352707;22;20398;-84
2023/02/24 04:31:04;;;;;;;3.77;2.53;;;15.60;59.90;;;;;;6352592;22;20486;-83
2023/02/24 04:33:33;;;;;;;3.57;2.50;;;15.60;59.80;;;;;;6352515;22;20481;-84
2023/02/24 04:36:01;;;;;;;3.60;2.00;;;15.60;59.70;;;;;;6352247;22;20434;-83
2023/02/24 04:38:29;;;;;;;5.33;2.40;;;15.60;59.70;;;;;;6353013;22;20423;-84
2023/02/24 04:40:59;;;;;;;2.33;2.00;;;15.50;59.60;;;;;;6354870;22;20446;-84
2023/02/24 04:43:28;;;;;;;3.17;2.13;;;15.50;59.70;;;;;;6356037;22;20423;-83
2023/02/24 04:45:56;;;;;;;3.00;1.87;;;15.60;59.80;;;;;;6351971;22;20399;-83
2023/02/24 04:48:24;;;;;;;3.30;2.10;;;15.50;59.60;;;;;;6354480;22;20431;-84
2023/02/24 04:50:54;;;;;;;4.13;2.13;;;15.50;59.60;;;;;;6354002;22;20407;-85
2023/02/24 04:53:25;;;;;;;3.83;2.03;;;15.50;59.60;;;;;;6353071;22;20435;-85
2023/02/24 04:55:55;;;;;;;2.77;2.10;;;15.50;59.50;;;;;;6350984;22;20518;-85
2023/02/24 04:58:26;;;;;;;2.10;1.90;;;15.50;59.40;;;;;;6352102;22;20475;-85
2023/02/24 05:00:55;;;;;;;5.33;2.10;;;15.50;59.40;;;;;;6354135;22;20476;-84
2023/02/24 05:03:28;;;;;;;2.73;2.27;;;15.50;59.50;;;;;;6353104;22;20447;-85
2023/02/24 05:05:58;;;;;;;3.33;1.83;;;15.50;59.40;;;;;;6352439;22;20434;-85
2023/02/24 05:08:28;;;;;;;3.37;2.00;;;15.50;59.30;;;;;;6352753;22;20418;-85
2023/02/24 05:10:57;;;;;;;3.73;2.00;;;15.50;59.30;;;;;;6350344;22;20426;-85
2023/02/24 05:13:27;;;;;;;4.10;1.97;;;15.50;59.40;;;;;;6351353;22;20423;-84
2023/02/24 05:15:58;;;;;;;2.40;1.47;;;15.50;59.30;;;;;;6352181;22;20427;-83
2023/02/24 05:18:29;;;;;;;2.40;1.80;;;15.40;59.30;;;;;;6350459;22;20404;-83
2023/02/24 05:23:44;;;;;;;4.37;1.73;;;15.40;59.40;;;;;;6348532;22;20514;-83
2023/02/24 05:26:15;;;;;;;7.10;2.10;;;15.40;59.40;;;;;;6345002;22;20471;-84
2023/02/24 05:28:47;;;;;;;2.00;1.43;;;15.40;59.50;;;;;;6346077;22;20488;-84
2023/02/24 05:31:18;;;;;;;2.57;1.70;;;15.40;59.40;;;;;;6346558;22;20674;-85
2023/02/24 05:33:48;;;;;;;3.57;1.77;;;15.40;59.40;;;;;;6347986;22;20451;-86
2023/02/24 05:36:17;;;;;;;3.67;2.00;;;15.40;59.40;;;;;;6347946;22;20924;-85
2023/02/24 05:38:45;;;;;;;2.33;1.60;;;15.40;59.40;;;;;;6348201;22;20499;-85
2023/02/24 05:41:16;;;;;;;2.27;1.57;;;15.30;59.40;;;;;;6345823;22;20427;-82
2023/02/24 05:43:46;;;;;;;2.60;1.70;;;15.40;59.40;;;;;;6345412;22;20423;-84
2023/02/24 05:46:15;;;;;;;2.70;1.90;;;15.40;59.40;;;;;;6345905;22;20461;-83
2023/02/24 05:48:43;;;;;;;2.80;1.67;;;15.40;59.50;;;;;;6345439;22;20403;-83
2023/02/24 05:51:12;;;;;;;1.90;1.80;;;15.30;59.30;;;;;;6345096;22;20522;-83
2023/02/24 05:53:41;;;;;;;2.63;1.70;;;15.40;59.40;;;;;;6344844;22;20816;-84
2023/02/24 05:56:09;;;;;;;2.77;1.40;;;15.40;59.40;;;;;;6343474;22;20444;-84
2023/02/24 05:58:38;;;;;;;3.67;1.90;;;15.30;59.10;;;;;;6343769;22;20407;-83
2023/02/24 06:01:14;;;;;;;2.20;1.87;;;15.30;59.30;;;;;;6344588;22;20414;-84
2023/02/24 06:03:46;;;;;;;1.70;1.60;;;15.30;59.30;;;;;;6343855;22;20423;-83
2023/02/24 06:06:17;;;;;;;2.60;1.80;;;15.30;59.30;;;;;;6347566;22;20403;-84
2023/02/24 06:08:49;;;;;;;4.70;1.87;;;15.30;59.30;;;;;;6347958;22;20415;-84
2023/02/24 06:11:17;;;;;;;5.07;2.00;;;15.30;59.30;;;;;;6341651;22;20433;-84
2023/02/24 06:13:48;;;;;;;3.37;2.00;;;15.30;59.30;;;;;;6335940;22;20427;-83
2023/02/24 06:16:23;;;;;;;1.87;1.67;;;15.30;59.20;;;;;;6335663;22;20450;-83
2023/02/24 06:21:39;;;;;;;2.53;1.70;;;15.30;59.20;;;;;;6336058;22;20490;-83
2023/02/24 06:24:13;;;;;;;2.80;1.83;;;15.30;59.10;;;;;;6336261;22;20427;-83
2023/02/24 06:26:42;;;;;;;3.90;2.13;;;15.20;59.00;;;;;;6336295;22;20466;-83
2023/02/24 06:29:14;;;;;;;2.27;1.80;;;15.20;59.10;;;;;;6336198;22;20412;-83
2023/02/24 06:31:53;;;;;;;5.60;1.77;;;15.20;59.00;;;;;;6336891;22;20411;-83
2023/02/24 06:34:25;;;;;;;1.40;1.20;;;15.20;58.80;;;;;;6336831;22;20451;-84
2023/02/24 06:36:53;;;;;;;3.23;1.50;;;15.20;58.80;;;;;;6336990;22;20427;-83
2023/02/24 06:39:24;;;;;;;1.90;1.30;;;15.10;58.80;;;;;;6335950;22;20430;-83
2023/02/24 06:41:52;;;;;;;2.47;1.57;;;15.10;58.90;;;;;;6338501;22;20427;-83
2023/02/24 06:44:24;;;;;;;4.33;1.60;;;15.20;58.90;;;;;;6357072;22;20438;-85
2023/02/24 06:46:56;;;;;;;3.13;1.53;;;15.10;58.80;;;;;;6361408;22;20430;-83
2023/02/24 06:49:25;;;;;;;1.33;1.23;;;15.10;58.70;;;;;;6360550;22;20430;-83
2023/02/24 06:51:59;;;;;;;2.10;1.27;;;15.10;58.80;;;;;;6361078;22;20392;-84
2023/02/24 06:54:31;;;;;;;1.77;1.67;;;15.10;58.60;;;;;;6362927;22;20411;-84
2023/02/24 06:57:02;;;;;;;3.63;1.33;;;15.10;58.60;;;;;;6362594;22;20461;-85
2023/02/24 06:59:30;;;;;;;1.57;1.30;;;15.10;58.60;;;;;;6364843;22;20485;-84
2023/02/24 07:02:10;;;;;;;3.77;1.70;;;15.10;58.70;;;;;;6364254;22;20418;-84
2023/02/24 07:04:43;;;;;;;4.93;1.63;;;15.10;58.60;;;;;;6363217;22;20431;-85
2023/02/24 07:07:13;;;;;;;2.20;1.33;;;15.10;58.70;;;;;;6358623;22;20734;-83
2023/02/24 07:09:44;;;;;;;1.90;1.70;;;15.10;58.40;;;;;;6355398;22;20486;-83
2023/02/24 07:12:19;;;;;;;2.40;1.33;;;15.10;58.40;;;;;;6337720;22;20432;-83
2023/02/24 07:14:51;;;;;;;5.70;1.63;;;15.10;58.50;;;;;;6335758;22;20423;-83
2023/02/24 07:17:30;;;;;;;2.80;1.50;;;15.10;58.40;;;;;;6336986;22;20466;-84
2023/02/24 07:20:09;;;;;;;2.20;1.00;;;15.00;58.20;;;;;;6336840;22;20407;-84
2023/02/24 07:22:38;;;;;;;2.60;1.47;;;15.00;58.30;;;;;;6338133;22;20906;-83
2023/02/24 07:25:06;;;;;;;1.90;1.30;;;15.00;58.20;;;;;;6345243;22;20435;-84
2023/02/24 07:27:36;;;;;;;4.70;1.33;;;15.00;58.30;;;;;;6346849;22;20453;-85
2023/02/24 07:30:08;;;;;;;3.23;1.70;;;15.00;58.20;;;;;;6347873;22;20467;-83
2023/02/24 07:32:39;;;;;;;3.60;1.10;;;14.90;58.10;;;;;;6348749;22;20410;-85
2023/02/24 07:35:08;;;;;;;3.03;1.40;;;14.90;58.10;;;;;;6346857;22;20403;-84
2023/02/24 07:37:36;;;;;;;4.70;1.60;;;14.90;58.10;;;;;;6347692;22;20522;-84
2023/02/24 07:40:08;;;;;;;3.53;1.30;;;14.90;57.90;;;;;;6349415;22;20403;-84
2023/02/24 07:42:36;;;;;;;3.40;1.30;;;14.90;57.90;;;;;;6347873;22;20431;-84
2023/02/24 07:45:07;;;;;;;4.23;1.70;;;15.00;58.00;;;;;;6348179;22;20403;-84
2023/02/24 07:47:36;;;;;;;2.77;1.83;;;14.90;57.80;;;;;;6350764;22;20399;-85
2023/02/24 07:50:12;;;;;;;5.70;1.30;;;14.90;57.80;;;;;;6350320;22;20423;-84
2023/02/24 07:52:40;;;;;;;2.53;1.30;;;14.90;57.80;;;;;;6344905;22;20974;-83
2023/02/24 07:55:09;;;;;;;4.13;1.30;;;14.90;58.00;;;;;;6344967;22;20467;-84
2023/02/24 07:57:37;;;;;;;2.20;1.20;;;14.90;58.00;;;;;;6343031;22;20435;-83
2023/02/24 08:00:17;;;;;;;4.43;1.67;;;14.90;57.90;;;;;;6343886;22;20466;-85
2023/02/24 08:02:46;;;;;;;2.40;1.43;;;14.90;57.90;;;;;;6341196;22;20495;-84
2023/02/24 08:05:16;;;;;;;3.97;1.70;;;14.90;57.90;;;;;;6341973;22;20410;-84
2023/02/24 08:07:48;;;;;;;3.07;1.57;;;14.90;57.90;;;;;;6344756;22;20490;-84
2023/02/24 08:10:24;;;;;;;3.37;1.30;;;14.90;57.80;;;;;;6344889;22;20430;-84
2023/02/24 08:12:55;;;;;;;1.60;1.30;;;14.80;57.90;;;;;;6348138;22;20406;-84
2023/02/24 08:15:32;;;;;;;2.93;1.77;;;14.90;57.90;;;;;;6343726;22;20410;-84
2023/02/24 08:18:02;;;;;;;3.27;1.70;;;14.90;57.90;;;;;;6342534;22;20430;-84
2023/02/24 08:20:35;;;;;;;2.83;1.33;;;14.90;57.70;;;;;;6338535;22;20403;-83
2023/02/24 08:23:05;;;;;;;3.33;1.33;;;14.90;57.90;;;;;;6338909;22;20443;-84
2023/02/24 08:25:36;;;;;;;3.07;1.43;;;14.90;57.80;;;;;;6338678;22;20415;-85
2023/02/24 08:28:10;;;;;;;2.50;1.40;;;14.90;57.80;;;;;;6343783;22;20399;-85
2023/02/24 08:30:43;;;;;;;3.83;1.40;;;14.90;57.60;;;;;;6341451;22;20402;-84
2023/02/24 08:33:16;;;;;;;2.77;1.47;;;14.90;57.50;;;;;;6338526;22;20451;-84
2023/02/24 08:35:45;;;;;;;1.77;1.40;;;14.90;57.70;;;;;;6341837;22;20403;-84
2023/02/24 08:38:15;;;;;;;4.43;1.50;;;14.90;57.50;;;;;;6340833;22;20462;-84
2023/02/24 08:40:50;;;;;;;2.00;1.33;;;14.90;57.70;;;;;;6338501;22;20427;-85
2023/02/24 08:43:29;;;;;;;5.93;1.53;;;14.80;57.60;;;;;;6346689;22;20447;-84
2023/02/24 08:45:59;;;;;;;2.00;1.60;;;14.90;57.60;;;;;;6343864;22;20478;-84
2023/02/24 08:48:36;;;;;;;3.07;1.37;;;14.90;57.50;;;;;;6344482;22;20453;-84
2023/02/24 08:51:09;;;;;;;1.57;1.13;;;14.90;57.70;;;;;;6342443;22;20401;-84
2023/02/24 08:53:39;;;;;;;2.63;1.53;;;14.90;57.70;;;;;;6342154;22;20447;-84
2023/02/24 08:56:11;;;;;;;4.00;1.60;;;14.90;57.70;;;;;;6341825;22;20924;-84
2023/02/24 08:58:45;;;;;;;2.50;1.37;;;14.90;57.60;;;;;;6340573;22;20451;-84
2023/02/24 09:01:22;;;;;;;2.20;1.30;;;14.90;57.70;;;;;;6340783;22;20406;-84
2023/02/24 09:03:53;;;;;;;1.80;1.63;;;14.90;57.60;;;;;;6340434;22;20423;-84
2023/02/24 09:06:25;;;;;;;4.27;1.90;;;14.90;57.40;;;;;;6340434;22;20403;-85
2023/02/24 09:11:43;;;;;;;3.80;1.73;;;14.90;57.60;;;;;;6338757;22;20434;-84
2023/02/24 09:14:19;;;;;;;3.63;1.53;;;14.90;57.50;;;;;;6340223;22;20430;-84
2023/02/24 09:17:05;;;;;;;2.80;1.40;;;14.90;57.60;;;;;;6339480;22;20435;-85
2023/02/24 09:22:31;;;;;;;1.87;1.40;;;14.90;57.50;;;;;;6339373;22;20939;-84
2023/02/24 09:25:20;;;;;;;2.80;1.80;;;14.90;57.60;;;;;;6340651;22;20454;-81
2023/02/24 09:27:53;;;;;;;5.20;3.03;;;14.90;57.50;;;;;;6343846;22;20508;-79
2023/02/24 09:30:35;;;;;;;5.87;3.40;;;12.90;55.70;;;;;;6342045;22;20896;-78
2023/02/24 09:33:17;;;;;;;10.63;3.90;;;9.90;62.90;;;;;;6343299;22;20752;-79
2023/02/24 09:36:01;;;;;;;8.43;4.30;;;8.50;67.80;;;;;;6343322;22;20907;-79
2023/02/24 09:41:30;;;;;;;5.30;3.47;;;8.10;71.90;;;;;;6341411;22;20434;-81
2023/02/24 09:44:02;;;;;;;8.70;3.70;;;7.50;74.40;;;;;;6341021;22;20442;-79
2023/02/24 09:46:33;;;;;;;8.87;3.50;;;7.90;82.40;;;;;;6337543;22;20453;-78
2023/02/24 09:49:05;;;;;;;7.70;3.70;;;8.60;78.00;;;;;;6337067;22;20387;-79
2023/02/24 09:51:41;;;;;;;7.47;3.80;;;9.00;74.40;;;;;;6337826;22;20380;-79
2023/02/24 09:54:14;;;;;;;6.70;3.70;;;9.40;71.90;;;;;;6337988;22;20404;-78
2023/02/24 09:56:45;;;;;;;5.73;3.87;;;9.90;71.20;;;;;;6336778;22;20415;-79
2023/02/24 09:59:14;;;;;;;9.13;3.80;;;10.20;69.10;;;;;;6339089;22;20418;-78
2023/02/24 10:01:45;;;;;;;8.33;3.87;;;10.40;66.90;;;;;;6339472;22;20384;-78
2023/02/24 10:04:21;;;;;;;5.00;3.83;;;10.30;66.50;;;;;;6339325;22;20424;-80
2023/02/24 10:06:50;;;;;;;11.47;4.00;;;10.60;67.40;;;;;;6338807;22;20396;-79
2023/02/24 10:09:25;;;;;;;9.73;3.70;;;10.70;65.50;;;;;;6348384;22;20400;-78
2023/02/24 10:12:02;;;;;;;7.80;3.70;;;10.50;66.10;;;;;;6341327;22;20480;-79
2023/02/24 10:14:37;;;;;;;5.30;3.57;;;10.70;65.60;;;;;;6342541;22;20453;-82
2023/02/24 10:17:23;;;;;;;5.80;3.40;;;10.60;65.00;;;;;;6344098;22;20502;-81
2023/02/24 10:19:58;;;;;;;8.13;3.77;;;10.70;65.90;;;;;;6335719;22;20434;-78
2023/02/24 10:22:49;;;;;;;7.73;3.87;;;10.70;65.30;;;;;;6335307;22;20403;-78
2023/02/24 10:25:34;;;;;;;9.27;3.73;;;10.70;66.00;;;;;;6335174;22;20412;-79
2023/02/24 10:28:06;;;;;;;7.17;3.50;;;11.00;66.10;;;;;;6335650;22;20400;-78
2023/02/24 10:30:45;;;;;;;6.87;3.97;;;11.10;65.20;;;;;;6335544;22;20404;-79
2023/02/24 10:33:24;;;;;;;12.83;3.77;;;11.20;64.50;;;;;;6336781;22;20431;-80
2023/02/24 10:36:07;;;;;;;11.70;5.80;;;11.30;65.00;;;;;;6339002;22;20407;-78
2023/02/24 10:38:37;;;;;;;9.83;5.20;;;11.10;64.10;;;;;;6336106;22;20431;-75
2023/02/24 10:41:08;;;;;;;7.23;4.20;;;11.00;65.10;;;;;;6336601;22;20427;-80
2023/02/24 10:43:44;;;;;;;6.27;4.27;;;11.10;64.80;;;;;;6335988;22;20424;-79
2023/02/24 10:46:25;;;;;;;7.23;4.40;;;11.00;64.80;;;;;;6335906;22;20456;-79
2023/02/24 10:49:10;;;;;;;10.80;6.20;;;10.90;65.50;;;;;;6335835;22;20372;-81
2023/02/24 10:51:40;;;;;;;8.50;4.70;;;11.10;65.40;;;;;;6336017;22;20491;-79
2023/02/24 10:57:14;;;;;;;6.60;4.20;;;11.10;66.00;;;;;;6335585;22;20427;-80
2023/02/24 11:00:19;;;;;;;9.83;4.60;;;11.00;67.30;;;;;;6336912;22;20453;-79
2023/02/24 11:03:09;;;;;;;8.63;4.30;;;11.20;66.50;;;;;;6332566;22;20448;-77
2023/02/24 11:05:43;;;;;;;8.57;4.60;;;11.20;67.20;;;;;;6335750;22;20443;-76
2023/02/24 11:08:35;;;;;;;8.50;4.40;;;11.40;67.60;;;;;;6336049;22;20384;-78
2023/02/24 11:11:18;;;;;;;6.57;4.30;;;11.30;67.20;;;;;;6333967;22;20419;-76
2023/02/24 11:19:34;;;;;;;14.13;7.07;;;12.00;68.40;;;;;;6334658;22;20927;-77
2023/02/24 11:22:02;;;;;;;9.53;5.90;;;12.00;66.80;;;;;;6335345;22;20404;-77
2023/02/24 11:24:30;;;;;;;10.50;5.47;;;12.00;66.30;;;;;;6334244;22;20428;-78
2023/02/24 11:26:58;;;;;;;8.50;5.00;;;12.00;66.20;;;;;;6333718;22;20446;-77
2023/02/24 11:29:34;;;;;;;8.27;5.27;;;12.20;67.20;;;;;;6336350;22;20403;-78
2023/02/24 11:32:12;;;;;;;8.20;4.90;;;12.40;67.20;;;;;;6337101;22;20500;-78
2023/02/24 11:34:48;;;;;;;8.87;4.23;;;12.70;66.60;;;;;;6337521;22;20423;-77
2023/02/24 11:37:24;;;;;;;5.00;3.67;;;12.80;67.20;;;;;;6335843;22;20442;-78
2023/02/24 11:39:55;;;;;;;5.90;3.40;;;13.40;65.60;;;;;;6335989;22;20434;-76
2023/02/24 11:42:25;;;;;;;4.00;3.63;;;13.80;67.10;;;;;;6336742;22;20434;-77
2023/02/24 11:44:58;;;;;;;6.27;3.40;;;14.30;64.90;;;;;;6336821;22;20434;-76
2023/02/24 11:47:31;;;;;;;5.67;3.40;;;14.30;63.40;;;;;;6338251;22;20422;-77
2023/02/24 11:50:07;;;;;;;9.00;3.87;;;14.60;63.20;;;;;;6336532;22;20494;-77
2023/02/24 11:52:37;;;;;;;3.50;3.10;;;14.50;61.30;;;;;;6335170;22;20402;-78
2023/02/24 11:55:07;;;;;;;7.63;3.77;;;14.30;61.60;;;;;;6335245;22;20403;-77
2023/02/24 11:57:37;;;;;;;5.23;3.70;;;14.10;61.90;;;;;;6335821;22;20434;-78
2023/02/24 12:00:12;;;;;;;9.73;4.20;;;13.90;61.60;;;;;;6336583;22;20434;-77
2023/02/24 12:02:45;;;;;;;6.53;3.87;;;13.50;62.60;;;;;;6336211;22;20403;-76
2023/02/24 12:05:15;;;;;;;4.67;4.00;;;13.50;63.90;;;;;;6342410;22;20403;-80
2023/02/24 12:07:45;;;;;;;8.00;4.00;;;13.50;63.90;;;;;;6344694;22;20486;-78
2023/02/24 12:10:16;;;;;;;7.97;4.20;;;13.50;64.30;;;;;;6343429;22;20406;-81
2023/02/24 12:12:47;;;;;;;11.03;4.80;;;13.70;64.90;;;;;;6346936;22;20427;-80
2023/02/24 12:15:19;;;;;;;5.87;4.07;;;13.80;64.40;;;;;;6349827;22;20463;-81
2023/02/24 12:17:57;;;;;;;8.60;5.00;;;13.70;64.40;;;;;;6348246;22;20410;-81
2023/02/24 12:20:29;;;;;;;10.40;4.70;;;13.80;64.80;;;;;;6346069;22;20395;-81
2023/02/24 12:23:01;;;;;;;9.53;4.20;;;13.70;64.90;;;;;;6347616;22;20427;-79
2023/02/24 12:25:30;;;;;;;7.77;4.30;;;13.70;65.10;;;;;;6339718;22;20502;-77
2023/02/24 12:28:05;;;;;;;9.47;4.07;;;13.70;67.40;;;;;;6336188;22;20391;-77
2023/02/24 12:30:56;;;;;;;9.80;4.20;;;13.90;67.50;;;;;;6335785;22;20478;-77
2023/02/24 12:33:31;;;;;;;9.40;3.50;;;14.30;67.80;;;;;;6335764;22;20423;-76
2023/02/24 12:36:03;;;;;;;6.60;3.23;;;14.90;68.70;;;;;;6336840;22;20406;-76
2023/02/24 12:38:42;;;;;;;6.70;3.10;;;16.70;71.10;;;;;;6335707;22;20431;-76
2023/02/24 12:41:20;;;;;;;4.73;2.87;;;18.90;66.70;;;;;;6337262;22;20427;-78
2023/02/24 12:43:51;;;;;;;5.37;2.13;;;20.60;60.40;;;;;;6337348;22;20812;-77
2023/02/24 12:46:23;;;;;;;2.97;1.90;;;22.40;57.20;;;;;;6337145;22;20545;-77
2023/02/24 12:49:10;;;;;;;5.17;2.17;;;23.60;54.50;;;;;;6336716;22;20385;-78
2023/02/24 12:51:42;;;;;;;8.17;2.10;;;24.90;50.70;;;;;;6335941;22;20410;-78
2023/02/24 12:54:14;;;;;;;5.87;2.60;;;24.70;49.00;;;;;;6335971;22;20398;-77
2023/02/24 12:56:46;;;;;;;5.80;3.07;;;24.20;46.20;;;;;;6335723;22;20427;-77
2023/02/24 12:59:16;;;;;;;4.90;2.80;;;22.90;45.20;;;;;;6335365;22;20405;-76
2023/02/24 13:01:50;;;;;;;12.33;5.13;;;21.70;46.00;;;;;;6335534;22;20959;-76
2023/02/24 13:04:29;;;;;;;12.20;3.50;;;20.90;47.40;;;;;;6336084;22;20423;-75
2023/02/24 13:07:04;;;;;;;11.17;3.67;;;20.30;47.90;;;;;;6336494;22;20399;-77
2023/02/24 13:09:34;;;;;;;12.07;3.27;;;19.50;48.40;;;;;;6335922;22;20417;-76
2023/02/24 13:12:05;;;;;;;11.07;3.10;;;19.00;49.20;;;;;;6335738;22;20510;-75
2023/02/24 13:14:35;;;;;;;6.63;2.17;;;18.60;50.50;;;;;;6336818;22;20522;-75
2023/02/24 13:17:06;;;;;;;11.47;2.80;;;19.50;53.60;;;;;;6340122;22;20467;-77
2023/02/24 13:19:34;;;;;;;6.53;2.57;;;20.50;51.10;;;;;;6336264;22;20423;-76
2023/02/24 13:22:05;;;;;;;5.23;2.30;;;21.10;52.30;;;;;;6335429;22;20408;-75
2023/02/24 13:24:33;;;;;;;6.40;2.37;;;22.10;50.60;;;;;;6335406;22;20404;-76
2023/02/24 13:27:06;;;;;;;20.63;9.27;;;23.10;49.70;;;;;;6335667;22;20402;-75
2023/02/24 13:29:44;;;;;;;9.47;4.90;;;23.50;45.80;;;;;;6335689;22;20378;-76
2023/02/24 13:32:28;;;;;;;8.93;4.30;;;23.20;44.80;;;;;;6335546;22;20478;-76
2023/02/24 13:34:56;;;;;;;10.83;3.90;;;22.40;45.80;;;;;;6335190;22;20404;-77
2023/02/24 13:37:28;;;;;;;8.93;3.40;;;21.50;45.40;;;;;;6335279;22;20403;-77
2023/02/24 13:39:56;;;;;;;12.40;4.27;;;21.00;47.60;;;;;;6334020;22;20415;-77